sensor_id;sensor_type;location;lat;lon;timestamp;pressure;altitude;pressure_sealevel;temperature;humidity
62103;BME280;48077;48.104;11.702;2022-11-03T00:00:56;95935.41;;;2.87;100.00
62103;BME280;48077;48.104;11.702;2022-11-03T00:03:19;95979.41;;;3.10;100.00
62103;BME280;48077;48.104;11.702;2022-11-03T00:05:43;95967.69;;;3.12;100.00
62103;BME280;48077;48.104;11.702;2022-11-03T00:08:24;95910.44;;;2.75;100.00
62103;BME280;48077;48.104;11.702;2022-11-03T00:10:48;95943.91;;;2.97;100.00
62103;BME280;48077;48.104;11.702;2022-11-03T00:13:12;95950.81;;;2.98;100.00
62103;BME280;48077;48.104;11.702;2022-11-03T00:15:35;95950.81;;;2.98;100.00
62103;BME280;48077;48.104;11.702;2022-11-03T00:17:58;95884.72;;;2.54;100.00
62103;BME280;48077;48.104;11.702;2022-11-03T00:20:22;95940.81;;;2.94;100.00
62103;BME280;48077;48.104;11.702;2022-11-03T00:22:45;95930.13;;;2.87;100.00
62103;BME280;48077;48.104;11.702;2022-11-03T00:25:08;95948.97;;;3.07;100.00
62103;BME280;48077;48.104;11.702;2022-11-03T00:27:32;95884.09;;;2.75;100.00
62103;BME280;48077;48.104;11.702;2022-11-03T00:29:55;95837.69;;;2.51;100.00
62103;BME280;48077;48.104;11.702;2022-11-03T00:32:19;95844.84;;;2.65;100.00
62103;BME280;48077;48.104;11.702;2022-11-03T00:34:42;95895.81;;;2.95;100.00
62103;BME280;48077;48.104;11.702;2022-11-03T00:37:05;95899.47;;;2.94;100.00
62103;BME280;48077;48.104;11.702;2022-11-03T00:39:29;95882.25;;;2.83;100.00
62103;BME280;48077;48.104;11.702;2022-11-03T00:41:52;95929.81;;;3.13;100.00
62103;BME280;48077;48.104;11.702;2022-11-03T00:44:15;95876.44;;;2.88;100.00
62103;BME280;48077;48.104;11.702;2022-11-03T00:46:39;95872.91;;;2.73;100.00
62103;BME280;48077;48.104;11.702;2022-11-03T00:49:03;95906.72;;;2.92;100.00
62103;BME280;48077;48.104;11.702;2022-11-03T00:51:28;95839.66;;;2.49;100.00
62103;BME280;48077;48.104;11.702;2022-11-03T00:53:57;95924.28;;;3.00;100.00
62103;BME280;48077;48.104;11.702;2022-11-03T00:58:45;95867.78;;;2.79;100.00
62103;BME280;48077;48.104;11.702;2022-11-03T01:01:11;95879.41;;;2.85;100.00
62103;BME280;48077;48.104;11.702;2022-11-03T01:03:38;95876.56;;;2.95;100.00
62103;BME280;48077;48.104;11.702;2022-11-03T01:06:04;95895.72;;;3.12;100.00
62103;BME280;48077;48.104;11.702;2022-11-03T01:08:47;95891.72;;;3.16;100.00
62103;BME280;48077;48.104;11.702;2022-11-03T01:11:15;95856.41;;;3.02;100.00
62103;BME280;48077;48.104;11.702;2022-11-03T01:13:58;95851.97;;;3.02;100.00
62103;BME280;48077;48.104;11.702;2022-11-03T01:16:22;95875.13;;;3.30;100.00
62103;BME280;48077;48.104;11.702;2022-11-03T01:18:45;95841.19;;;3.12;100.00
62103;BME280;48077;48.104;11.702;2022-11-03T01:21:09;95856.31;;;3.33;100.00
62103;BME280;48077;48.104;11.702;2022-11-03T01:23:34;95826.22;;;3.28;100.00
62103;BME280;48077;48.104;11.702;2022-11-03T01:26:02;95804.84;;;3.22;100.00
62103;BME280;48077;48.104;11.702;2022-11-03T01:28:26;95838.56;;;3.50;100.00
62103;BME280;48077;48.104;11.702;2022-11-03T01:30:50;95836.56;;;3.52;100.00
62103;BME280;48077;48.104;11.702;2022-11-03T01:33:13;95778.84;;;3.19;100.00
62103;BME280;48077;48.104;11.702;2022-11-03T01:35:37;95844.66;;;3.65;100.00
62103;BME280;48077;48.104;11.702;2022-11-03T01:38:00;95820.72;;;3.52;100.00
62103;BME280;48077;48.104;11.702;2022-11-03T01:40:23;95827.63;;;3.53;100.00
62103;BME280;48077;48.104;11.702;2022-11-03T01:42:47;95850.81;;;3.58;100.00
62103;BME280;48077;48.104;11.702;2022-11-03T01:45:10;95799.88;;;3.28;100.00
62103;BME280;48077;48.104;11.702;2022-11-03T01:47:35;95807.75;;;3.13;100.00
62103;BME280;48077;48.104;11.702;2022-11-03T01:50:02;95853.16;;;3.38;100.00
62103;BME280;48077;48.104;11.702;2022-11-03T01:52:35;95863.16;;;3.42;100.00
62103;BME280;48077;48.104;11.702;2022-11-03T01:55:09;95830.13;;;3.17;100.00
62103;BME280;48077;48.104;11.702;2022-11-03T01:57:41;95811.28;;;3.05;100.00
62103;BME280;48077;48.104;11.702;2022-11-03T02:00:07;95819.44;;;3.10;100.00
62103;BME280;48077;48.104;11.702;2022-11-03T02:02:30;95759.00;;;2.71;100.00
62103;BME280;48077;48.104;11.702;2022-11-03T02:04:57;95800.84;;;2.89;100.00
62103;BME280;48077;48.104;11.702;2022-11-03T02:07:39;95840.03;;;3.15;100.00
62103;BME280;48077;48.104;11.702;2022-11-03T02:10:05;95832.81;;;3.09;100.00
62103;BME280;48077;48.104;11.702;2022-11-03T02:12:29;95805.25;;;2.96;100.00
62103;BME280;48077;48.104;11.702;2022-11-03T02:15:02;95833.28;;;3.12;100.00
62103;BME280;48077;48.104;11.702;2022-11-03T02:17:28;95762.47;;;2.71;100.00
62103;BME280;48077;48.104;11.702;2022-11-03T02:19:57;95800.16;;;2.95;100.00
62103;BME280;48077;48.104;11.702;2022-11-03T02:25:53;95839.81;;;3.16;100.00
62103;BME280;48077;48.104;11.702;2022-11-03T02:28:21;95817.88;;;3.01;100.00
62103;BME280;48077;48.104;11.702;2022-11-03T02:30:50;95829.53;;;3.07;100.00
62103;BME280;48077;48.104;11.702;2022-11-03T02:33:40;95819.88;;;2.99;100.00
62103;BME280;48077;48.104;11.702;2022-11-03T02:36:23;95798.28;;;2.80;100.00
62103;BME280;48077;48.104;11.702;2022-11-03T02:38:58;95800.38;;;2.85;100.00
62103;BME280;48077;48.104;11.702;2022-11-03T02:41:23;95801.56;;;2.82;100.00
62103;BME280;48077;48.104;11.702;2022-11-03T02:43:48;95754.13;;;2.45;100.00
62103;BME280;48077;48.104;11.702;2022-11-03T02:46:14;95802.63;;;2.73;100.00
62103;BME280;48077;48.104;11.702;2022-11-03T02:48:38;95801.16;;;2.71;100.00
62103;BME280;48077;48.104;11.702;2022-11-03T02:51:02;95811.63;;;2.79;100.00
62103;BME280;48077;48.104;11.702;2022-11-03T02:53:27;95729.09;;;2.26;100.00
62103;BME280;48077;48.104;11.702;2022-11-03T02:56:05;95741.66;;;2.38;100.00
62103;BME280;48077;48.104;11.702;2022-11-03T03:03:40;95773.78;;;2.57;100.00
62103;BME280;48077;48.104;11.702;2022-11-03T03:06:10;95767.34;;;2.59;100.00
62103;BME280;48077;48.104;11.702;2022-11-03T03:08:40;95771.44;;;2.62;100.00
62103;BME280;48077;48.104;11.702;2022-11-03T03:11:07;95759.97;;;2.55;100.00
62103;BME280;48077;48.104;11.702;2022-11-03T03:13:32;95718.19;;;2.29;100.00
62103;BME280;48077;48.104;11.702;2022-11-03T03:16:15;95782.38;;;2.74;100.00
62103;BME280;48077;48.104;11.702;2022-11-03T03:18:49;95716.69;;;2.34;100.00
62103;BME280;48077;48.104;11.702;2022-11-03T03:21:25;95769.44;;;2.64;100.00
62103;BME280;48077;48.104;11.702;2022-11-03T03:24:07;95750.31;;;2.47;100.00
62103;BME280;48077;48.104;11.702;2022-11-03T03:26:34;95769.00;;;2.60;100.00
62103;BME280;48077;48.104;11.702;2022-11-03T03:29:03;95708.25;;;2.16;100.00
62103;BME280;48077;48.104;11.702;2022-11-03T03:31:33;95734.81;;;2.29;100.00
62103;BME280;48077;48.104;11.702;2022-11-03T03:33:58;95703.19;;;2.06;100.00
62103;BME280;48077;48.104;11.702;2022-11-03T03:36:23;95691.38;;;2.02;100.00
62103;BME280;48077;48.104;11.702;2022-11-03T03:38:54;95680.28;;;1.92;100.00
62103;BME280;48077;48.104;11.702;2022-11-03T03:41:19;95719.94;;;2.13;100.00
62103;BME280;48077;48.104;11.702;2022-11-03T03:43:44;95755.34;;;2.34;100.00
62103;BME280;48077;48.104;11.702;2022-11-03T03:46:09;95755.69;;;2.31;100.00
62103;BME280;48077;48.104;11.702;2022-11-03T03:48:33;95724.03;;;2.16;100.00
62103;BME280;48077;48.104;11.702;2022-11-03T03:50:59;95728.13;;;2.18;100.00
62103;BME280;48077;48.104;11.702;2022-11-03T03:53:26;95727.53;;;2.08;100.00
62103;BME280;48077;48.104;11.702;2022-11-03T03:55:51;95674.44;;;1.81;100.00
62103;BME280;48077;48.104;11.702;2022-11-03T03:58:15;95762.41;;;2.33;100.00
62103;BME280;48077;48.104;11.702;2022-11-03T04:00:39;95690.47;;;1.95;100.00
62103;BME280;48077;48.104;11.702;2022-11-03T04:03:03;95739.94;;;2.22;100.00
62103;BME280;48077;48.104;11.702;2022-11-03T04:05:26;95731.53;;;2.27;100.00
62103;BME280;48077;48.104;11.702;2022-11-03T04:07:49;95700.88;;;2.11;100.00
62103;BME280;48077;48.104;11.702;2022-11-03T04:10:19;95712.53;;;2.17;100.00
62103;BME280;48077;48.104;11.702;2022-11-03T04:12:43;95718.06;;;2.22;100.00
62103;BME280;48077;48.104;11.702;2022-11-03T04:15:26;95727.75;;;2.30;100.00
62103;BME280;48077;48.104;11.702;2022-11-03T04:18:09;95668.59;;;1.94;100.00
62103;BME280;48077;48.104;11.702;2022-11-03T04:20:51;95689.00;;;2.15;100.00
62103;BME280;48077;48.104;11.702;2022-11-03T04:23:33;95721.25;;;2.40;100.00
62103;BME280;48077;48.104;11.702;2022-11-03T04:25:56;95727.97;;;2.43;100.00
62103;BME280;48077;48.104;11.702;2022-11-03T04:28:21;95703.09;;;2.22;100.00
62103;BME280;48077;48.104;11.702;2022-11-03T04:30:44;95713.94;;;2.28;100.00
62103;BME280;48077;48.104;11.702;2022-11-03T04:33:19;95698.53;;;2.16;100.00
62103;BME280;48077;48.104;11.702;2022-11-03T04:35:43;95663.50;;;1.93;100.00
62103;BME280;48077;48.104;11.702;2022-11-03T04:40:36;95681.66;;;2.11;100.00
62103;BME280;48077;48.104;11.702;2022-11-03T04:43:03;95697.03;;;2.22;100.00
62103;BME280;48077;48.104;11.702;2022-11-03T04:45:32;95678.06;;;2.27;100.00
62103;BME280;48077;48.104;11.702;2022-11-03T04:48:01;95664.38;;;2.31;100.00
62103;BME280;48077;48.104;11.702;2022-11-03T04:50:31;95654.19;;;2.28;100.00
62103;BME280;48077;48.104;11.702;2022-11-03T04:52:57;95633.97;;;2.29;100.00
62103;BME280;48077;48.104;11.702;2022-11-03T04:55:21;95657.91;;;2.57;100.00
62103;BME280;48077;48.104;11.702;2022-11-03T04:57:44;95672.56;;;2.74;100.00
62103;BME280;48077;48.104;11.702;2022-11-03T05:00:18;95674.66;;;2.79;100.00
62103;BME280;48077;48.104;11.702;2022-11-03T05:02:43;95655.06;;;2.81;100.00
62103;BME280;48077;48.104;11.702;2022-11-03T05:05:21;95645.97;;;2.84;100.00
62103;BME280;48077;48.104;11.702;2022-11-03T05:07:47;95626.72;;;2.83;100.00
62103;BME280;48077;48.104;11.702;2022-11-03T05:10:15;95643.97;;;3.01;100.00
62103;BME280;48077;48.104;11.702;2022-11-03T05:12:39;95576.38;;;2.63;100.00
62103;BME280;48077;48.104;11.702;2022-11-03T05:15:09;95653.06;;;3.13;100.00
62103;BME280;48077;48.104;11.702;2022-11-03T05:17:33;95648.69;;;3.20;100.00
62103;BME280;48077;48.104;11.702;2022-11-03T05:19:59;95607.25;;;2.99;100.00
62103;BME280;48077;48.104;11.702;2022-11-03T05:22:24;95618.88;;;3.20;100.00
62103;BME280;48077;48.104;11.702;2022-11-03T05:25:00;95577.06;;;3.02;100.00
62103;BME280;48077;48.104;11.702;2022-11-03T05:27:25;95590.63;;;3.14;100.00
62103;BME280;48077;48.104;11.702;2022-11-03T05:29:51;95620.50;;;3.36;100.00
62103;BME280;48077;48.104;11.702;2022-11-03T05:32:18;95602.22;;;3.34;100.00
62103;BME280;48077;48.104;11.702;2022-11-03T05:34:51;95596.03;;;3.42;100.00
62103;BME280;48077;48.104;11.702;2022-11-03T05:39:49;95594.97;;;3.58;100.00
62103;BME280;48077;48.104;11.702;2022-11-03T05:44:44;95593.25;;;3.65;100.00
62103;BME280;48077;48.104;11.702;2022-11-03T05:47:21;95634.53;;;3.94;100.00
62103;BME280;48077;48.104;11.702;2022-11-03T05:49:48;95563.91;;;3.53;100.00
62103;BME280;48077;48.104;11.702;2022-11-03T05:52:17;95617.81;;;3.87;100.00
62103;BME280;48077;48.104;11.702;2022-11-03T05:54:41;95576.03;;;3.69;100.00
62103;BME280;48077;48.104;11.702;2022-11-03T05:57:13;95570.56;;;3.71;100.00
62103;BME280;48077;48.104;11.702;2022-11-03T05:59:37;95597.81;;;3.99;100.00
62103;BME280;48077;48.104;11.702;2022-11-03T06:02:01;95564.16;;;3.80;100.00
62103;BME280;48077;48.104;11.702;2022-11-03T06:04:35;95610.91;;;4.08;100.00
62103;BME280;48077;48.104;11.702;2022-11-03T06:07:20;95570.25;;;3.80;100.00
62103;BME280;48077;48.104;11.702;2022-11-03T06:09:45;95562.91;;;3.76;100.00
62103;BME280;48077;48.104;11.702;2022-11-03T06:12:11;95593.56;;;3.98;100.00
62103;BME280;48077;48.104;11.702;2022-11-03T06:14:38;95592.09;;;3.96;100.00
62103;BME280;48077;48.104;11.702;2022-11-03T06:17:04;95578.03;;;3.89;100.00
62103;BME280;48077;48.104;11.702;2022-11-03T06:19:39;95607.44;;;4.07;100.00
62103;BME280;48077;48.104;11.702;2022-11-03T06:22:14;95548.06;;;3.75;100.00
62103;BME280;48077;48.104;11.702;2022-11-03T06:24:40;95577.16;;;4.03;100.00
62103;BME280;48077;48.104;11.702;2022-11-03T06:27:04;95562.47;;;3.94;100.00
62103;BME280;48077;48.104;11.702;2022-11-03T06:29:29;95593.50;;;4.13;100.00
62103;BME280;48077;48.104;11.702;2022-11-03T06:31:55;95577.59;;;4.07;100.00
62103;BME280;48077;48.104;11.702;2022-11-03T06:34:32;95576.78;;;4.06;100.00
62103;BME280;48077;48.104;11.702;2022-11-03T06:37:07;95591.31;;;4.17;100.00
62103;BME280;48077;48.104;11.702;2022-11-03T06:39:32;95549.88;;;3.96;100.00
62103;BME280;48077;48.104;11.702;2022-11-03T06:41:56;95600.75;;;4.33;100.00
62103;BME280;48077;48.104;11.702;2022-11-03T06:44:26;95604.22;;;4.33;100.00
62103;BME280;48077;48.104;11.702;2022-11-03T06:46:54;95536.28;;;3.92;100.00
62103;BME280;48077;48.104;11.702;2022-11-03T06:49:37;95550.16;;;4.01;100.00
62103;BME280;48077;48.104;11.702;2022-11-03T06:52:21;95534.50;;;3.99;100.00
62103;BME280;48077;48.104;11.702;2022-11-03T06:54:47;95484.56;;;3.76;100.00
62103;BME280;48077;48.104;11.702;2022-11-03T06:57:13;95549.63;;;4.12;100.00
62103;BME280;48077;48.104;11.702;2022-11-03T06:59:39;95567.41;;;4.25;100.00
62103;BME280;48077;48.104;11.702;2022-11-03T07:02:22;95556.16;;;4.16;100.00
62103;BME280;48077;48.104;11.702;2022-11-03T07:04:48;95534.31;;;4.01;100.00
62103;BME280;48077;48.104;11.702;2022-11-03T07:07:11;95534.94;;;4.03;100.00
62103;BME280;48077;48.104;11.702;2022-11-03T07:09:35;95552.50;;;4.17;100.00
62103;BME280;48077;48.104;11.702;2022-11-03T07:11:58;95547.06;;;4.19;100.00
62103;BME280;48077;48.104;11.702;2022-11-03T07:14:27;95578.53;;;4.49;100.00
62103;BME280;48077;48.104;11.702;2022-11-03T07:16:53;95503.69;;;4.07;100.00
62103;BME280;48077;48.104;11.702;2022-11-03T07:19:20;95557.16;;;4.43;100.00
62103;BME280;48077;48.104;11.702;2022-11-03T07:21:50;95564.53;;;4.48;100.00
62103;BME280;48077;48.104;11.702;2022-11-03T07:26:46;95552.31;;;4.47;100.00
62103;BME280;48077;48.104;11.702;2022-11-03T07:29:17;95490.69;;;4.05;100.00
62103;BME280;48077;48.104;11.702;2022-11-03T07:31:40;95513.13;;;4.22;100.00
62103;BME280;48077;48.104;11.702;2022-11-03T07:34:04;95516.03;;;4.28;100.00
62103;BME280;48077;48.104;11.702;2022-11-03T07:36:33;95552.75;;;4.51;100.00
62103;BME280;48077;48.104;11.702;2022-11-03T07:38:58;95536.88;;;4.44;100.00
62103;BME280;48077;48.104;11.702;2022-11-03T07:41:27;95559.31;;;4.61;100.00
62103;BME280;48077;48.104;11.702;2022-11-03T07:43:56;95557.31;;;4.63;100.00
62103;BME280;48077;48.104;11.702;2022-11-03T07:46:22;95545.91;;;4.56;100.00
62103;BME280;48077;48.104;11.702;2022-11-03T07:48:47;95541.00;;;4.60;100.00
62103;BME280;48077;48.104;11.702;2022-11-03T07:51:31;95564.75;;;4.81;100.00
62103;BME280;48077;48.104;11.702;2022-11-03T07:59:04;95547.25;;;4.87;100.00
62103;BME280;48077;48.104;11.702;2022-11-03T08:01:36;95498.59;;;4.68;100.00
62103;BME280;48077;48.104;11.702;2022-11-03T08:04:05;95538.38;;;5.01;100.00
62103;BME280;48077;48.104;11.702;2022-11-03T08:06:29;95515.00;;;4.92;100.00
62103;BME280;48077;48.104;11.702;2022-11-03T08:08:53;95511.53;;;4.98;100.00
62103;BME280;48077;48.104;11.702;2022-11-03T08:11:16;95527.91;;;5.21;100.00
62103;BME280;48077;48.104;11.702;2022-11-03T08:13:39;95516.91;;;5.18;100.00
62103;BME280;48077;48.104;11.702;2022-11-03T08:16:03;95511.63;;;5.24;100.00
62103;BME280;48077;48.104;11.702;2022-11-03T08:18:26;95510.22;;;5.35;100.00
62103;BME280;48077;48.104;11.702;2022-11-03T08:20:50;95481.13;;;5.22;100.00
62103;BME280;48077;48.104;11.702;2022-11-03T08:23:14;95511.47;;;5.39;100.00
62103;BME280;48077;48.104;11.702;2022-11-03T08:25:37;95471.34;;;5.29;100.00
62103;BME280;48077;48.104;11.702;2022-11-03T08:28:00;95448.59;;;5.28;100.00
62103;BME280;48077;48.104;11.702;2022-11-03T08:30:25;95468.56;;;5.57;100.00
62103;BME280;48077;48.104;11.702;2022-11-03T08:32:48;95491.81;;;5.75;100.00
62103;BME280;48077;48.104;11.702;2022-11-03T08:35:11;95472.88;;;5.65;100.00
62103;BME280;48077;48.104;11.702;2022-11-03T08:37:35;95474.91;;;5.83;100.00
62103;BME280;48077;48.104;11.702;2022-11-03T08:39:58;95466.38;;;5.87;100.00
62103;BME280;48077;48.104;11.702;2022-11-03T08:42:22;95390.00;;;5.58;100.00
62103;BME280;48077;48.104;11.702;2022-11-03T08:44:45;95455.38;;;6.04;100.00
62103;BME280;48077;48.104;11.702;2022-11-03T08:47:08;95404.66;;;5.80;100.00
62103;BME280;48077;48.104;11.702;2022-11-03T08:49:32;95378.38;;;5.79;100.00
62103;BME280;48077;48.104;11.702;2022-11-03T08:51:55;95424.59;;;6.16;100.00
62103;BME280;48077;48.104;11.702;2022-11-03T08:54:18;95368.19;;;5.89;100.00
62103;BME280;48077;48.104;11.702;2022-11-03T08:56:42;95414.22;;;6.21;100.00
62103;BME280;48077;48.104;11.702;2022-11-03T08:59:06;95418.03;;;6.39;100.00
62103;BME280;48077;48.104;11.702;2022-11-03T09:01:32;95348.25;;;6.00;100.00
62103;BME280;48077;48.104;11.702;2022-11-03T09:03:55;95381.38;;;6.29;100.00
62103;BME280;48077;48.104;11.702;2022-11-03T09:06:23;95339.72;;;6.04;100.00
62103;BME280;48077;48.104;11.702;2022-11-03T09:08:56;95401.66;;;6.62;100.00
62103;BME280;48077;48.104;11.702;2022-11-03T09:11:22;95343.47;;;6.28;100.00
62103;BME280;48077;48.104;11.702;2022-11-03T09:13:45;95361.53;;;6.52;100.00
62103;BME280;48077;48.104;11.702;2022-11-03T09:16:08;95432.28;;;7.03;100.00
62103;BME280;48077;48.104;11.702;2022-11-03T09:18:32;95357.41;;;6.62;100.00
62103;BME280;48077;48.104;11.702;2022-11-03T09:20:56;95384.44;;;6.84;100.00
62103;BME280;48077;48.104;11.702;2022-11-03T09:23:21;95412.22;;;7.14;100.00
62103;BME280;48077;48.104;11.702;2022-11-03T09:25:45;95408.47;;;7.28;100.00
62103;BME280;48077;48.104;11.702;2022-11-03T09:28:08;95378.19;;;7.04;100.00
62103;BME280;48077;48.104;11.702;2022-11-03T09:30:39;95304.63;;;6.61;100.00
62103;BME280;48077;48.104;11.702;2022-11-03T09:33:02;95309.44;;;6.71;100.00
62103;BME280;48077;48.104;11.702;2022-11-03T09:35:26;95344.97;;;7.01;100.00
62103;BME280;48077;48.104;11.702;2022-11-03T09:37:55;95297.16;;;6.83;100.00
62103;BME280;48077;48.104;11.702;2022-11-03T09:40:33;95355.19;;;7.29;100.00
62103;BME280;48077;48.104;11.702;2022-11-03T09:43:05;95286.72;;;6.88;100.00
62103;BME280;48077;48.104;11.702;2022-11-03T09:45:37;95299.97;;;7.20;100.00
62103;BME280;48077;48.104;11.702;2022-11-03T09:48:16;95296.22;;;7.53;100.00
62103;BME280;48077;48.104;11.702;2022-11-03T09:50:42;95315.06;;;7.69;100.00
62103;BME280;48077;48.104;11.702;2022-11-03T09:53:15;95278.00;;;7.56;100.00
62103;BME280;48077;48.104;11.702;2022-11-03T09:55:46;95352.13;;;8.20;100.00
62103;BME280;48077;48.104;11.702;2022-11-03T09:58:14;95279.38;;;7.84;100.00
62103;BME280;48077;48.104;11.702;2022-11-03T10:00:39;95313.97;;;8.32;100.00
62103;BME280;48077;48.104;11.702;2022-11-03T10:03:14;95282.53;;;8.29;100.00
62103;BME280;48077;48.104;11.702;2022-11-03T10:05:46;95299.88;;;8.14;100.00
62103;BME280;48077;48.104;11.702;2022-11-03T10:08:23;95271.78;;;7.87;100.00
62103;BME280;48077;48.104;11.702;2022-11-03T10:10:55;95272.59;;;8.06;100.00
62103;BME280;48077;48.104;11.702;2022-11-03T10:13:34;95292.88;;;8.38;100.00
62103;BME280;48077;48.104;11.702;2022-11-03T10:16:02;95255.72;;;8.49;100.00
62103;BME280;48077;48.104;11.702;2022-11-03T10:18:35;95248.50;;;8.68;100.00
62103;BME280;48077;48.104;11.702;2022-11-03T10:21:19;95339.00;;;9.22;100.00
62103;BME280;48077;48.104;11.702;2022-11-03T10:23:45;95313.06;;;9.18;100.00
62103;BME280;48077;48.104;11.702;2022-11-03T10:26:13;95226.44;;;8.68;100.00
62103;BME280;48077;48.104;11.702;2022-11-03T10:28:38;95295.50;;;9.28;100.00
62103;BME280;48077;48.104;11.702;2022-11-03T10:31:17;95216.56;;;8.99;100.00
62103;BME280;48077;48.104;11.702;2022-11-03T10:33:51;95233.84;;;9.31;100.00
62103;BME280;48077;48.104;11.702;2022-11-03T10:38:56;95235.75;;;9.95;97.69
62103;BME280;48077;48.104;11.702;2022-11-03T10:41:25;95263.56;;;10.51;94.57
62103;BME280;48077;48.104;11.702;2022-11-03T10:46:54;95307.66;;;11.00;92.09
62103;BME280;48077;48.104;11.702;2022-11-03T10:49:27;95242.22;;;10.80;90.81
62103;BME280;48077;48.104;11.702;2022-11-03T10:52:18;95302.78;;;11.59;88.37
62103;BME280;48077;48.104;11.702;2022-11-03T10:54:55;95186.16;;;11.31;83.25
62103;BME280;48077;48.104;11.702;2022-11-03T10:57:22;95192.31;;;11.48;83.73
62103;BME280;48077;48.104;11.702;2022-11-03T10:59:55;95190.63;;;11.42;83.48
62103;BME280;48077;48.104;11.702;2022-11-03T11:02:20;95218.63;;;11.40;84.16
62103;BME280;48077;48.104;11.702;2022-11-03T11:04:57;95230.84;;;11.19;86.37
62103;BME280;48077;48.104;11.702;2022-11-03T11:07:42;95181.25;;;11.23;85.19
62103;BME280;48077;48.104;11.702;2022-11-03T11:10:27;95275.22;;;12.31;83.86
62103;BME280;48077;48.104;11.702;2022-11-03T11:20:50;95253.81;;;13.08;81.57
62103;BME280;48077;48.104;11.702;2022-11-03T11:28:31;95253.59;;;13.14;81.61
62103;BME280;48077;48.104;11.702;2022-11-03T11:30:55;95251.53;;;13.22;81.58
62103;BME280;48077;48.104;11.702;2022-11-03T11:33:25;95250.47;;;13.23;80.46
62103;BME280;48077;48.104;11.702;2022-11-03T11:38:44;95260.59;;;12.88;81.76
62103;BME280;48077;48.104;11.702;2022-11-03T11:41:07;95256.34;;;12.65;82.88
62103;BME280;48077;48.104;11.702;2022-11-03T11:43:31;95244.47;;;12.56;83.67
62103;BME280;48077;48.104;11.702;2022-11-03T11:49:34;95258.34;;;12.53;84.07
62103;BME280;48077;48.104;11.702;2022-11-03T11:51:33;95245.47;;;12.50;84.37
62103;BME280;48077;48.104;11.702;2022-11-03T11:53:57;95240.13;;;12.50;82.93
62103;BME280;48077;48.104;11.702;2022-11-03T11:56:21;95231.50;;;12.43;83.79
62103;BME280;48077;48.104;11.702;2022-11-03T11:58:52;95237.66;;;12.21;84.93
62103;BME280;48077;48.104;11.702;2022-11-03T12:03:50;95248.56;;;11.98;87.85
62103;BME280;48077;48.104;11.702;2022-11-03T12:06:15;95239.56;;;12.04;86.39
62103;BME280;48077;48.104;11.702;2022-11-03T12:08:39;95224.16;;;11.89;86.90
62103;BME280;48077;48.104;11.702;2022-11-03T12:11:05;95202.94;;;11.82;87.09
62103;BME280;48077;48.104;11.702;2022-11-03T12:13:42;95217.06;;;12.00;87.90
62103;BME280;48077;48.104;11.702;2022-11-03T12:16:06;95196.66;;;11.93;87.96
62103;BME280;48077;48.104;11.702;2022-11-03T12:18:41;95216.72;;;12.13;88.05
62103;BME280;48077;48.104;11.702;2022-11-03T12:21:12;95225.56;;;12.19;88.19
62103;BME280;48077;48.104;11.702;2022-11-03T12:28:50;95163.28;;;12.18;87.92
62103;BME280;48077;48.104;11.702;2022-11-03T12:31:14;95194.50;;;12.34;87.68
62103;BME280;48077;48.104;11.702;2022-11-03T12:33:37;95165.59;;;12.09;87.25
62103;BME280;48077;48.104;11.702;2022-11-03T12:36:01;95183.19;;;12.05;88.20
62103;BME280;48077;48.104;11.702;2022-11-03T12:38:24;95157.91;;;11.91;88.47
62103;BME280;48077;48.104;11.702;2022-11-03T12:40:47;95162.69;;;11.89;88.49
62103;BME280;48077;48.104;11.702;2022-11-03T12:43:11;95202.97;;;12.04;89.34
62103;BME280;48077;48.104;11.702;2022-11-03T12:45:35;95190.84;;;11.97;89.80
62103;BME280;48077;48.104;11.702;2022-11-03T12:47:58;95196.44;;;11.95;90.01
62103;BME280;48077;48.104;11.702;2022-11-03T12:50:21;95185.53;;;11.80;90.23
62103;BME280;48077;48.104;11.702;2022-11-03T12:52:45;95158.78;;;11.58;90.85
62103;BME280;48077;48.104;11.702;2022-11-03T12:55:08;95159.94;;;11.45;91.98
62103;BME280;48077;48.104;11.702;2022-11-03T12:57:31;95169.59;;;11.46;92.54
62103;BME280;48077;48.104;11.702;2022-11-03T12:59:55;95164.81;;;11.48;92.94
62103;BME280;48077;48.104;11.702;2022-11-03T13:02:18;95157.34;;;11.50;93.61
62103;BME280;48077;48.104;11.702;2022-11-03T13:04:42;95131.56;;;11.39;93.36
62103;BME280;48077;48.104;11.702;2022-11-03T13:07:05;95126.72;;;11.36;93.29
62103;BME280;48077;48.104;11.702;2022-11-03T13:09:29;95137.69;;;11.39;93.61
62103;BME280;48077;48.104;11.702;2022-11-03T13:11:52;95132.91;;;11.41;93.46
62103;BME280;48077;48.104;11.702;2022-11-03T13:14:34;95122.41;;;11.34;94.04
62103;BME280;48077;48.104;11.702;2022-11-03T13:16:57;95154.13;;;11.48;93.99
62103;BME280;48077;48.104;11.702;2022-11-03T13:19:21;95107.25;;;11.18;94.02
62103;BME280;48077;48.104;11.702;2022-11-03T13:21:44;95132.88;;;11.36;94.18
62103;BME280;48077;48.104;11.702;2022-11-03T13:24:08;95098.53;;;11.06;94.99
62103;BME280;48077;48.104;11.702;2022-11-03T13:26:31;95111.06;;;11.05;95.58
62103;BME280;48077;48.104;11.702;2022-11-03T13:28:55;95071.88;;;10.89;95.71
62103;BME280;48077;48.104;11.702;2022-11-03T13:31:18;95110.41;;;11.15;95.77
62103;BME280;48077;48.104;11.702;2022-11-03T13:33:42;95093.13;;;11.01;96.61
62103;BME280;48077;48.104;11.702;2022-11-03T13:36:05;95079.88;;;10.89;97.36
62103;BME280;48077;48.104;11.702;2022-11-03T13:38:29;95062.28;;;10.71;98.31
62103;BME280;48077;48.104;11.702;2022-11-03T13:40:52;95068.25;;;10.78;98.05
62103;BME280;48077;48.104;11.702;2022-11-03T13:43:16;95056.47;;;10.57;99.39
62103;BME280;48077;48.104;11.702;2022-11-03T13:45:46;94984.88;;;10.15;99.81
62103;BME280;48077;48.104;11.702;2022-11-03T13:48:13;95093.56;;;10.76;100.00
62103;BME280;48077;48.104;11.702;2022-11-03T13:50:36;95028.19;;;10.39;100.00